sensor_id;sensor_type;location;lat;lon;timestamp;P1;durP1;ratioP1;P2;durP2;ratioP2
53263;SDS011;39153;52.680;6.172;2024-02-26T00:01:55;18.00;;;8.85;;
53263;SDS011;39153;52.680;6.172;2024-02-26T00:04:21;17.10;;;9.20;;
53263;SDS011;39153;52.680;6.172;2024-02-26T00:06:47;17.10;;;9.48;;
53263;SDS011;39153;52.680;6.172;2024-02-26T00:09:15;18.55;;;9.98;;
53263;SDS011;39153;52.680;6.172;2024-02-26T00:11:41;15.93;;;8.98;;
53263;SDS011;39153;52.680;6.172;2024-02-26T00:14:06;18.92;;;9.23;;
53263;SDS011;39153;52.680;6.172;2024-02-26T00:16:32;17.85;;;9.23;;
53263;SDS011;39153;52.680;6.172;2024-02-26T00:18:58;17.92;;;9.43;;
53263;SDS011;39153;52.680;6.172;2024-02-26T00:21:23;19.95;;;10.35;;
53263;SDS011;39153;52.680;6.172;2024-02-26T00:23:49;17.40;;;9.02;;
53263;SDS011;39153;52.680;6.172;2024-02-26T00:26:16;20.88;;;10.05;;
53263;SDS011;39153;52.680;6.172;2024-02-26T00:28:41;18.35;;;9.25;;
53263;SDS011;39153;52.680;6.172;2024-02-26T00:31:08;19.88;;;9.48;;
53263;SDS011;39153;52.680;6.172;2024-02-26T00:33:34;17.88;;;10.02;;
53263;SDS011;39153;52.680;6.172;2024-02-26T00:36:00;19.50;;;10.20;;
53263;SDS011;39153;52.680;6.172;2024-02-26T00:38:25;17.85;;;9.63;;
53263;SDS011;39153;52.680;6.172;2024-02-26T00:40:51;21.48;;;11.15;;
53263;SDS011;39153;52.680;6.172;2024-02-26T00:43:16;17.98;;;10.75;;
53263;SDS011;39153;52.680;6.172;2024-02-26T00:45:42;17.92;;;9.75;;
53263;SDS011;39153;52.680;6.172;2024-02-26T00:48:08;19.35;;;10.43;;
53263;SDS011;39153;52.680;6.172;2024-02-26T00:50:34;20.15;;;10.98;;
53263;SDS011;39153;52.680;6.172;2024-02-26T00:53:00;17.95;;;9.63;;
53263;SDS011;39153;52.680;6.172;2024-02-26T00:55:26;19.10;;;10.65;;
53263;SDS011;39153;52.680;6.172;2024-02-26T00:57:52;18.65;;;10.30;;
53263;SDS011;39153;52.680;6.172;2024-02-26T01:00:18;18.98;;;10.52;;
53263;SDS011;39153;52.680;6.172;2024-02-26T01:02:43;17.98;;;9.73;;
53263;SDS011;39153;52.680;6.172;2024-02-26T01:05:12;19.70;;;10.25;;
53263;SDS011;39153;52.680;6.172;2024-02-26T01:07:38;19.38;;;10.48;;
53263;SDS011;39153;52.680;6.172;2024-02-26T01:10:05;20.38;;;10.07;;
53263;SDS011;39153;52.680;6.172;2024-02-26T01:12:31;18.35;;;10.65;;
53263;SDS011;39153;52.680;6.172;2024-02-26T01:14:58;20.35;;;11.18;;
53263;SDS011;39153;52.680;6.172;2024-02-26T01:17:23;19.95;;;10.43;;
53263;SDS011;39153;52.680;6.172;2024-02-26T01:19:49;18.48;;;10.20;;
53263;SDS011;39153;52.680;6.172;2024-02-26T01:22:15;21.17;;;10.68;;
53263;SDS011;39153;52.680;6.172;2024-02-26T01:24:40;19.83;;;10.82;;
53263;SDS011;39153;52.680;6.172;2024-02-26T01:27:06;19.05;;;9.65;;
53263;SDS011;39153;52.680;6.172;2024-02-26T01:29:34;18.77;;;9.90;;
53263;SDS011;39153;52.680;6.172;2024-02-26T01:31:59;19.52;;;10.05;;
53263;SDS011;39153;52.680;6.172;2024-02-26T01:34:25;19.80;;;10.30;;
53263;SDS011;39153;52.680;6.172;2024-02-26T01:36:51;20.90;;;11.23;;
53263;SDS011;39153;52.680;6.172;2024-02-26T01:39:16;20.02;;;10.20;;
53263;SDS011;39153;52.680;6.172;2024-02-26T01:41:42;18.67;;;9.32;;
53263;SDS011;39153;52.680;6.172;2024-02-26T01:44:08;22.13;;;10.18;;
53263;SDS011;39153;52.680;6.172;2024-02-26T01:46:37;19.33;;;9.95;;
53263;SDS011;39153;52.680;6.172;2024-02-26T01:49:03;20.55;;;10.85;;
53263;SDS011;39153;52.680;6.172;2024-02-26T01:51:29;19.60;;;9.93;;
53263;SDS011;39153;52.680;6.172;2024-02-26T01:53:56;19.52;;;9.32;;
53263;SDS011;39153;52.680;6.172;2024-02-26T01:56:23;18.50;;;9.48;;
53263;SDS011;39153;52.680;6.172;2024-02-26T01:58:53;20.60;;;9.82;;
53263;SDS011;39153;52.680;6.172;2024-02-26T02:01:19;19.08;;;9.32;;
53263;SDS011;39153;52.680;6.172;2024-02-26T02:03:47;20.83;;;10.32;;
53263;SDS011;39153;52.680;6.172;2024-02-26T02:06:13;21.10;;;10.32;;
53263;SDS011;39153;52.680;6.172;2024-02-26T02:08:39;22.42;;;10.32;;
53263;SDS011;39153;52.680;6.172;2024-02-26T02:11:05;25.08;;;11.30;;
53263;SDS011;39153;52.680;6.172;2024-02-26T02:13:32;23.27;;;10.70;;
53263;SDS011;39153;52.680;6.172;2024-02-26T02:15:57;22.00;;;10.32;;
53263;SDS011;39153;52.680;6.172;2024-02-26T02:18:23;20.92;;;10.32;;
53263;SDS011;39153;52.680;6.172;2024-02-26T02:20:48;23.23;;;11.07;;
53263;SDS011;39153;52.680;6.172;2024-02-26T02:23:14;21.88;;;11.73;;
53263;SDS011;39153;52.680;6.172;2024-02-26T02:25:40;21.63;;;11.25;;
53263;SDS011;39153;52.680;6.172;2024-02-26T02:28:06;20.50;;;10.10;;
53263;SDS011;39153;52.680;6.172;2024-02-26T02:30:31;22.15;;;10.43;;
53263;SDS011;39153;52.680;6.172;2024-02-26T02:32:58;25.35;;;11.93;;
53263;SDS011;39153;52.680;6.172;2024-02-26T02:35:24;24.70;;;12.15;;
53263;SDS011;39153;52.680;6.172;2024-02-26T02:37:51;23.23;;;10.57;;
53263;SDS011;39153;52.680;6.172;2024-02-26T02:40:18;22.73;;;11.38;;
53263;SDS011;39153;52.680;6.172;2024-02-26T02:42:44;22.00;;;10.75;;
53263;SDS011;39153;52.680;6.172;2024-02-26T02:45:09;23.40;;;12.00;;
53263;SDS011;39153;52.680;6.172;2024-02-26T02:47:36;22.58;;;11.95;;
53263;SDS011;39153;52.680;6.172;2024-02-26T02:50:02;24.88;;;12.05;;
53263;SDS011;39153;52.680;6.172;2024-02-26T02:52:28;24.95;;;11.68;;
53263;SDS011;39153;52.680;6.172;2024-02-26T02:54:54;28.50;;;11.95;;
53263;SDS011;39153;52.680;6.172;2024-02-26T02:57:20;25.23;;;12.43;;
53263;SDS011;39153;52.680;6.172;2024-02-26T02:59:46;23.55;;;11.50;;
53263;SDS011;39153;52.680;6.172;2024-02-26T03:02:11;24.70;;;11.60;;
53263;SDS011;39153;52.680;6.172;2024-02-26T03:04:37;25.83;;;11.48;;
53263;SDS011;39153;52.680;6.172;2024-02-26T03:07:03;26.83;;;11.60;;
53263;SDS011;39153;52.680;6.172;2024-02-26T03:09:29;29.27;;;13.10;;
53263;SDS011;39153;52.680;6.172;2024-02-26T03:11:54;27.60;;;13.52;;
53263;SDS011;39153;52.680;6.172;2024-02-26T03:14:20;25.42;;;12.60;;
53263;SDS011;39153;52.680;6.172;2024-02-26T03:16:46;32.28;;;15.23;;
53263;SDS011;39153;52.680;6.172;2024-02-26T03:19:14;29.38;;;13.20;;
53263;SDS011;39153;52.680;6.172;2024-02-26T03:21:41;27.33;;;13.23;;
53263;SDS011;39153;52.680;6.172;2024-02-26T03:24:07;32.95;;;12.50;;
53263;SDS011;39153;52.680;6.172;2024-02-26T03:26:35;30.73;;;14.25;;
53263;SDS011;39153;52.680;6.172;2024-02-26T03:29:01;37.38;;;15.95;;
53263;SDS011;39153;52.680;6.172;2024-02-26T03:31:28;34.08;;;13.90;;
53263;SDS011;39153;52.680;6.172;2024-02-26T03:33:53;39.30;;;15.98;;
53263;SDS011;39153;52.680;6.172;2024-02-26T03:36:19;36.25;;;15.43;;
53263;SDS011;39153;52.680;6.172;2024-02-26T03:38:46;35.92;;;14.95;;
53263;SDS011;39153;52.680;6.172;2024-02-26T03:41:13;36.42;;;15.32;;
53263;SDS011;39153;52.680;6.172;2024-02-26T03:43:39;40.03;;;15.20;;
53263;SDS011;39153;52.680;6.172;2024-02-26T03:46:08;39.05;;;16.13;;
53263;SDS011;39153;52.680;6.172;2024-02-26T03:48:36;42.58;;;17.30;;
53263;SDS011;39153;52.680;6.172;2024-02-26T03:51:02;36.75;;;15.75;;
53263;SDS011;39153;52.680;6.172;2024-02-26T03:53:28;42.42;;;17.75;;
53263;SDS011;39153;52.680;6.172;2024-02-26T03:55:54;38.40;;;16.98;;
53263;SDS011;39153;52.680;6.172;2024-02-26T03:58:20;43.10;;;18.70;;
53263;SDS011;39153;52.680;6.172;2024-02-26T04:00:46;44.55;;;18.40;;
53263;SDS011;39153;52.680;6.172;2024-02-26T04:03:14;40.95;;;18.60;;
53263;SDS011;39153;52.680;6.172;2024-02-26T04:05:40;41.80;;;17.65;;
53263;SDS011;39153;52.680;6.172;2024-02-26T04:08:06;42.05;;;18.65;;
53263;SDS011;39153;52.680;6.172;2024-02-26T04:10:32;46.63;;;20.45;;
53263;SDS011;39153;52.680;6.172;2024-02-26T04:13:00;42.75;;;18.55;;
53263;SDS011;39153;52.680;6.172;2024-02-26T04:15:26;50.85;;;22.70;;
53263;SDS011;39153;52.680;6.172;2024-02-26T04:17:52;49.20;;;21.08;;
53263;SDS011;39153;52.680;6.172;2024-02-26T04:20:17;49.83;;;19.50;;
53263;SDS011;39153;52.680;6.172;2024-02-26T04:22:43;45.88;;;19.65;;
53263;SDS011;39153;52.680;6.172;2024-02-26T04:25:09;45.28;;;18.70;;
53263;SDS011;39153;52.680;6.172;2024-02-26T04:27:35;47.72;;;19.95;;
53263;SDS011;39153;52.680;6.172;2024-02-26T04:30:01;47.05;;;20.73;;
53263;SDS011;39153;52.680;6.172;2024-02-26T04:32:27;52.42;;;23.80;;
53263;SDS011;39153;52.680;6.172;2024-02-26T04:34:53;50.08;;;21.75;;
53263;SDS011;39153;52.680;6.172;2024-02-26T04:37:19;50.60;;;21.38;;
53263;SDS011;39153;52.680;6.172;2024-02-26T04:39:44;51.63;;;21.48;;
53263;SDS011;39153;52.680;6.172;2024-02-26T04:42:10;48.22;;;21.35;;
53263;SDS011;39153;52.680;6.172;2024-02-26T04:44:36;54.90;;;21.30;;
53263;SDS011;39153;52.680;6.172;2024-02-26T04:47:02;56.70;;;22.98;;
53263;SDS011;39153;52.680;6.172;2024-02-26T04:49:27;49.42;;;21.30;;
53263;SDS011;39153;52.680;6.172;2024-02-26T04:51:53;44.15;;;20.63;;
53263;SDS011;39153;52.680;6.172;2024-02-26T04:54:19;49.33;;;22.15;;
53263;SDS011;39153;52.680;6.172;2024-02-26T04:56:45;51.53;;;22.23;;
53263;SDS011;39153;52.680;6.172;2024-02-26T04:59:11;47.70;;;22.25;;
53263;SDS011;39153;52.680;6.172;2024-02-26T05:01:37;50.60;;;22.80;;
53263;SDS011;39153;52.680;6.172;2024-02-26T05:04:02;41.63;;;19.10;;
53263;SDS011;39153;52.680;6.172;2024-02-26T05:06:28;42.78;;;19.98;;
53263;SDS011;39153;52.680;6.172;2024-02-26T05:08:54;47.72;;;21.27;;
53263;SDS011;39153;52.680;6.172;2024-02-26T05:11:20;45.30;;;19.55;;
53263;SDS011;39153;52.680;6.172;2024-02-26T05:13:45;46.00;;;20.25;;
53263;SDS011;39153;52.680;6.172;2024-02-26T05:16:12;42.33;;;18.15;;
53263;SDS011;39153;52.680;6.172;2024-02-26T05:18:38;48.08;;;20.20;;
53263;SDS011;39153;52.680;6.172;2024-02-26T05:21:04;45.10;;;19.70;;
53263;SDS011;39153;52.680;6.172;2024-02-26T05:23:29;49.03;;;20.77;;
53263;SDS011;39153;52.680;6.172;2024-02-26T05:25:55;44.67;;;19.55;;
53263;SDS011;39153;52.680;6.172;2024-02-26T05:28:21;48.17;;;18.45;;
53263;SDS011;39153;52.680;6.172;2024-02-26T05:30:46;45.50;;;19.33;;
53263;SDS011;39153;52.680;6.172;2024-02-26T05:33:12;42.28;;;18.63;;
53263;SDS011;39153;52.680;6.172;2024-02-26T05:35:38;36.22;;;16.58;;
53263;SDS011;39153;52.680;6.172;2024-02-26T05:38:05;37.63;;;16.48;;
53263;SDS011;39153;52.680;6.172;2024-02-26T05:40:31;34.92;;;15.85;;
53263;SDS011;39153;52.680;6.172;2024-02-26T05:42:56;33.28;;;15.40;;
53263;SDS011;39153;52.680;6.172;2024-02-26T05:45:22;34.47;;;15.50;;
53263;SDS011;39153;52.680;6.172;2024-02-26T05:47:47;28.20;;;14.98;;
53263;SDS011;39153;52.680;6.172;2024-02-26T05:50:14;29.98;;;14.07;;
53263;SDS011;39153;52.680;6.172;2024-02-26T05:52:40;24.25;;;12.80;;
53263;SDS011;39153;52.680;6.172;2024-02-26T05:55:06;28.08;;;13.65;;
53263;SDS011;39153;52.680;6.172;2024-02-26T05:57:33;23.77;;;12.20;;
53263;SDS011;39153;52.680;6.172;2024-02-26T05:59:59;25.65;;;12.63;;
53263;SDS011;39153;52.680;6.172;2024-02-26T06:02:29;22.52;;;11.75;;
53263;SDS011;39153;52.680;6.172;2024-02-26T06:04:55;23.45;;;11.30;;
53263;SDS011;39153;52.680;6.172;2024-02-26T06:07:21;20.00;;;10.60;;
53263;SDS011;39153;52.680;6.172;2024-02-26T06:09:47;21.23;;;10.88;;
53263;SDS011;39153;52.680;6.172;2024-02-26T06:12:13;20.90;;;10.88;;
53263;SDS011;39153;52.680;6.172;2024-02-26T06:14:39;23.20;;;11.95;;
53263;SDS011;39153;52.680;6.172;2024-02-26T06:17:05;27.42;;;11.60;;
53263;SDS011;39153;52.680;6.172;2024-02-26T06:19:32;19.70;;;10.68;;
53263;SDS011;39153;52.680;6.172;2024-02-26T06:21:57;22.50;;;11.15;;
53263;SDS011;39153;52.680;6.172;2024-02-26T06:24:23;18.90;;;9.75;;
53263;SDS011;39153;52.680;6.172;2024-02-26T06:26:49;22.35;;;10.77;;
53263;SDS011;39153;52.680;6.172;2024-02-26T06:29:15;19.75;;;9.57;;
53263;SDS011;39153;52.680;6.172;2024-02-26T06:31:40;17.98;;;9.32;;
53263;SDS011;39153;52.680;6.172;2024-02-26T06:34:06;18.08;;;9.05;;
53263;SDS011;39153;52.680;6.172;2024-02-26T06:36:32;19.02;;;9.60;;
53263;SDS011;39153;52.680;6.172;2024-02-26T06:38:58;17.83;;;8.90;;
53263;SDS011;39153;52.680;6.172;2024-02-26T06:41:23;18.88;;;9.48;;
53263;SDS011;39153;52.680;6.172;2024-02-26T06:43:55;17.83;;;8.68;;
53263;SDS011;39153;52.680;6.172;2024-02-26T06:46:21;19.08;;;8.32;;
53263;SDS011;39153;52.680;6.172;2024-02-26T06:48:48;17.42;;;8.40;;
53263;SDS011;39153;52.680;6.172;2024-02-26T06:51:14;17.00;;;7.82;;
53263;SDS011;39153;52.680;6.172;2024-02-26T06:53:40;17.65;;;8.90;;
53263;SDS011;39153;52.680;6.172;2024-02-26T06:56:06;15.55;;;7.95;;
53263;SDS011;39153;52.680;6.172;2024-02-26T06:58:31;15.93;;;8.43;;
53263;SDS011;39153;52.680;6.172;2024-02-26T07:00:58;16.38;;;7.40;;
53263;SDS011;39153;52.680;6.172;2024-02-26T07:03:23;13.35;;;7.38;;
53263;SDS011;39153;52.680;6.172;2024-02-26T07:05:50;14.75;;;7.50;;
53263;SDS011;39153;52.680;6.172;2024-02-26T07:08:16;13.23;;;7.43;;
53263;SDS011;39153;52.680;6.172;2024-02-26T07:10:42;13.45;;;6.55;;
53263;SDS011;39153;52.680;6.172;2024-02-26T07:13:08;26.98;;;8.30;;
53263;SDS011;39153;52.680;6.172;2024-02-26T07:15:34;13.30;;;6.72;;
53263;SDS011;39153;52.680;6.172;2024-02-26T07:18:00;12.43;;;5.78;;
53263;SDS011;39153;52.680;6.172;2024-02-26T07:20:31;13.88;;;6.85;;
53263;SDS011;39153;52.680;6.172;2024-02-26T07:22:57;15.63;;;7.20;;
53263;SDS011;39153;52.680;6.172;2024-02-26T07:25:23;13.93;;;6.40;;
53263;SDS011;39153;52.680;6.172;2024-02-26T07:27:49;12.48;;;5.60;;
53263;SDS011;39153;52.680;6.172;2024-02-26T07:30:15;12.27;;;5.78;;
53263;SDS011;39153;52.680;6.172;2024-02-26T07:32:42;9.98;;;6.00;;
53263;SDS011;39153;52.680;6.172;2024-02-26T07:35:08;12.65;;;6.57;;
53263;SDS011;39153;52.680;6.172;2024-02-26T07:37:34;12.38;;;5.28;;
53263;SDS011;39153;52.680;6.172;2024-02-26T07:39:59;19.15;;;6.18;;
53263;SDS011;39153;52.680;6.172;2024-02-26T07:42:25;13.32;;;6.03;;
53263;SDS011;39153;52.680;6.172;2024-02-26T07:44:51;10.95;;;5.82;;
53263;SDS011;39153;52.680;6.172;2024-02-26T07:47:17;10.82;;;6.63;;
53263;SDS011;39153;52.680;6.172;2024-02-26T07:49:44;11.00;;;5.90;;
53263;SDS011;39153;52.680;6.172;2024-02-26T07:52:09;12.32;;;7.25;;
53263;SDS011;39153;52.680;6.172;2024-02-26T07:54:35;13.02;;;6.38;;
53263;SDS011;39153;52.680;6.172;2024-02-26T07:57:01;11.40;;;6.38;;
53263;SDS011;39153;52.680;6.172;2024-02-26T07:59:30;10.82;;;6.15;;
53263;SDS011;39153;52.680;6.172;2024-02-26T08:01:56;11.30;;;6.20;;
53263;SDS011;39153;52.680;6.172;2024-02-26T08:04:22;12.15;;;6.03;;
53263;SDS011;39153;52.680;6.172;2024-02-26T08:06:47;11.13;;;6.28;;
53263;SDS011;39153;52.680;6.172;2024-02-26T08:09:13;11.88;;;5.60;;
53263;SDS011;39153;52.680;6.172;2024-02-26T08:11:39;10.02;;;5.45;;
53263;SDS011;39153;52.680;6.172;2024-02-26T08:14:04;12.43;;;7.05;;
53263;SDS011;39153;52.680;6.172;2024-02-26T08:16:30;10.50;;;5.10;;
53263;SDS011;39153;52.680;6.172;2024-02-26T08:18:56;10.02;;;5.65;;
53263;SDS011;39153;52.680;6.172;2024-02-26T08:21:21;9.23;;;5.38;;
53263;SDS011;39153;52.680;6.172;2024-02-26T08:23:47;9.80;;;5.78;;
53263;SDS011;39153;52.680;6.172;2024-02-26T08:26:13;10.13;;;5.63;;
53263;SDS011;39153;52.680;6.172;2024-02-26T08:28:38;11.95;;;5.20;;
53263;SDS011;39153;52.680;6.172;2024-02-26T08:31:04;11.23;;;5.38;;
53263;SDS011;39153;52.680;6.172;2024-02-26T08:33:30;10.18;;;5.60;;
53263;SDS011;39153;52.680;6.172;2024-02-26T08:35:56;9.35;;;5.25;;
53263;SDS011;39153;52.680;6.172;2024-02-26T08:38:22;8.70;;;4.97;;
53263;SDS011;39153;52.680;6.172;2024-02-26T08:40:48;9.15;;;5.05;;
53263;SDS011;39153;52.680;6.172;2024-02-26T08:43:14;10.90;;;5.32;;
53263;SDS011;39153;52.680;6.172;2024-02-26T08:45:40;8.52;;;4.82;;
53263;SDS011;39153;52.680;6.172;2024-02-26T08:48:05;9.70;;;5.10;;
53263;SDS011;39153;52.680;6.172;2024-02-26T08:50:32;8.68;;;5.28;;
53263;SDS011;39153;52.680;6.172;2024-02-26T08:52:58;12.02;;;5.50;;
53263;SDS011;39153;52.680;6.172;2024-02-26T08:55:26;8.60;;;5.28;;
53263;SDS011;39153;52.680;6.172;2024-02-26T08:57:52;10.82;;;5.97;;
53263;SDS011;39153;52.680;6.172;2024-02-26T09:00:17;9.00;;;4.95;;
53263;SDS011;39153;52.680;6.172;2024-02-26T09:02:45;9.43;;;5.20;;
53263;SDS011;39153;52.680;6.172;2024-02-26T09:05:14;8.50;;;5.07;;
53263;SDS011;39153;52.680;6.172;2024-02-26T09:07:40;9.98;;;5.38;;
53263;SDS011;39153;52.680;6.172;2024-02-26T09:10:06;9.85;;;5.53;;
53263;SDS011;39153;52.680;6.172;2024-02-26T09:12:36;9.43;;;5.88;;
53263;SDS011;39153;52.680;6.172;2024-02-26T09:15:02;11.52;;;5.57;;
53263;SDS011;39153;52.680;6.172;2024-02-26T09:17:28;10.93;;;5.60;;
53263;SDS011;39153;52.680;6.172;2024-02-26T09:19:54;8.93;;;5.57;;
53263;SDS011;39153;52.680;6.172;2024-02-26T09:22:20;9.48;;;5.93;;
53263;SDS011;39153;52.680;6.172;2024-02-26T09:24:45;9.85;;;5.93;;
53263;SDS011;39153;52.680;6.172;2024-02-26T09:27:11;9.32;;;5.72;;
53263;SDS011;39153;52.680;6.172;2024-02-26T09:29:37;9.20;;;5.72;;
53263;SDS011;39153;52.680;6.172;2024-02-26T09:32:02;11.57;;;5.85;;
53263;SDS011;39153;52.680;6.172;2024-02-26T09:34:28;9.90;;;5.78;;
53263;SDS011;39153;52.680;6.172;2024-02-26T09:36:54;9.15;;;5.30;;
53263;SDS011;39153;52.680;6.172;2024-02-26T09:39:20;10.38;;;6.10;;
53263;SDS011;39153;52.680;6.172;2024-02-26T09:41:47;10.07;;;5.25;;
53263;SDS011;39153;52.680;6.172;2024-02-26T09:44:18;10.93;;;5.70;;
53263;SDS011;39153;52.680;6.172;2024-02-26T09:46:47;11.25;;;5.80;;
53263;SDS011;39153;52.680;6.172;2024-02-26T09:49:16;9.52;;;5.65;;
53263;SDS011;39153;52.680;6.172;2024-02-26T09:51:43;10.30;;;6.10;;
53263;SDS011;39153;52.680;6.172;2024-02-26T09:54:09;9.32;;;5.95;;
53263;SDS011;39153;52.680;6.172;2024-02-26T09:56:38;10.30;;;5.70;;
53263;SDS011;39153;52.680;6.172;2024-02-26T09:59:13;11.35;;;5.75;;
53263;SDS011;39153;52.680;6.172;2024-02-26T10:01:42;9.18;;;5.28;;
53263;SDS011;39153;52.680;6.172;2024-02-26T10:04:11;10.32;;;5.57;;
53263;SDS011;39153;52.680;6.172;2024-02-26T10:06:38;10.68;;;5.47;;
53263;SDS011;39153;52.680;6.172;2024-02-26T10:09:04;9.18;;;5.72;;
53263;SDS011;39153;52.680;6.172;2024-02-26T10:11:34;11.43;;;5.82;;
53263;SDS011;39153;52.680;6.172;2024-02-26T10:14:01;12.23;;;6.07;;
53263;SDS011;39153;52.680;6.172;2024-02-26T10:16:26;12.82;;;5.88;;
53263;SDS011;39153;52.680;6.172;2024-02-26T10:18:53;11.25;;;6.07;;
53263;SDS011;39153;52.680;6.172;2024-02-26T10:21:19;9.50;;;5.82;;
53263;SDS011;39153;52.680;6.172;2024-02-26T10:23:46;10.30;;;5.68;;
53263;SDS011;39153;52.680;6.172;2024-02-26T10:26:13;11.20;;;5.95;;
53263;SDS011;39153;52.680;6.172;2024-02-26T10:28:40;9.30;;;5.43;;
53263;SDS011;39153;52.680;6.172;2024-02-26T10:31:06;9.57;;;5.85;;
53263;SDS011;39153;52.680;6.172;2024-02-26T10:33:33;8.57;;;5.43;;
53263;SDS011;39153;52.680;6.172;2024-02-26T10:36:03;11.00;;;5.90;;
53263;SDS011;39153;52.680;6.172;2024-02-26T10:38:30;8.10;;;5.40;;
53263;SDS011;39153;52.680;6.172;2024-02-26T10:40:57;8.45;;;5.43;;
53263;SDS011;39153;52.680;6.172;2024-02-26T10:43:23;8.07;;;5.32;;
53263;SDS011;39153;52.680;6.172;2024-02-26T10:45:50;9.35;;;5.43;;
53263;SDS011;39153;52.680;6.172;2024-02-26T10:48:16;9.25;;;5.78;;
53263;SDS011;39153;52.680;6.172;2024-02-26T10:50:43;10.82;;;5.70;;
53263;SDS011;39153;52.680;6.172;2024-02-26T10:53:31;9.40;;;5.30;;
53263;SDS011;39153;52.680;6.172;2024-02-26T10:56:03;13.27;;;5.80;;
53263;SDS011;39153;52.680;6.172;2024-02-26T10:58:32;9.02;;;5.88;;
53263;SDS011;39153;52.680;6.172;2024-02-26T11:00:59;8.85;;;5.30;;
53263;SDS011;39153;52.680;6.172;2024-02-26T11:03:25;8.45;;;5.10;;
53263;SDS011;39153;52.680;6.172;2024-02-26T11:05:52;9.70;;;5.88;;
53263;SDS011;39153;52.680;6.172;2024-02-26T11:08:18;8.43;;;4.85;;
53263;SDS011;39153;52.680;6.172;2024-02-26T11:10:50;10.38;;;5.63;;
53263;SDS011;39153;52.680;6.172;2024-02-26T11:13:18;9.40;;;5.45;;
53263;SDS011;39153;52.680;6.172;2024-02-26T11:15:47;10.10;;;5.95;;
53263;SDS011;39153;52.680;6.172;2024-02-26T11:18:17;9.40;;;5.43;;
53263;SDS011;39153;52.680;6.172;2024-02-26T11:20:44;9.45;;;4.90;;
53263;SDS011;39153;52.680;6.172;2024-02-26T11:23:11;9.75;;;5.03;;
53263;SDS011;39153;52.680;6.172;2024-02-26T11:25:37;9.18;;;5.25;;
53263;SDS011;39153;52.680;6.172;2024-02-26T11:28:05;10.25;;;5.32;;
53263;SDS011;39153;52.680;6.172;2024-02-26T11:30:36;7.68;;;5.05;;
53263;SDS011;39153;52.680;6.172;2024-02-26T11:33:08;9.38;;;5.18;;
53263;SDS011;39153;52.680;6.172;2024-02-26T11:35:36;8.48;;;4.90;;
53263;SDS011;39153;52.680;6.172;2024-02-26T11:38:03;8.32;;;4.50;;
53263;SDS011;39153;52.680;6.172;2024-02-26T11:40:32;10.95;;;5.35;;
53263;SDS011;39153;52.680;6.172;2024-02-26T11:42:58;10.38;;;5.25;;
53263;SDS011;39153;52.680;6.172;2024-02-26T11:48:10;9.43;;;5.10;;
53263;SDS011;39153;52.680;6.172;2024-02-26T11:50:41;10.55;;;5.78;;
53263;SDS011;39153;52.680;6.172;2024-02-26T11:53:21;8.55;;;5.13;;
53263;SDS011;39153;52.680;6.172;2024-02-26T11:58:39;9.02;;;5.05;;
53263;SDS011;39153;52.680;6.172;2024-02-26T12:01:05;7.32;;;4.53;;
53263;SDS011;39153;52.680;6.172;2024-02-26T12:03:53;7.15;;;4.63;;
53263;SDS011;39153;52.680;6.172;2024-02-26T12:06:20;8.15;;;4.30;;
53263;SDS011;39153;52.680;6.172;2024-02-26T12:08:46;7.78;;;4.40;;
53263;SDS011;39153;52.680;6.172;2024-02-26T12:11:15;7.25;;;4.50;;
53263;SDS011;39153;52.680;6.172;2024-02-26T12:13:41;7.28;;;4.43;;
53263;SDS011;39153;52.680;6.172;2024-02-26T12:16:08;6.93;;;4.07;;
53263;SDS011;39153;52.680;6.172;2024-02-26T12:18:34;9.15;;;4.38;;
53263;SDS011;39153;52.680;6.172;2024-02-26T12:21:00;6.88;;;3.80;;
53263;SDS011;39153;52.680;6.172;2024-02-26T12:23:27;8.45;;;4.55;;
53263;SDS011;39153;52.680;6.172;2024-02-26T12:25:53;9.23;;;4.13;;
53263;SDS011;39153;52.680;6.172;2024-02-26T12:28:27;7.65;;;4.13;;
53263;SDS011;39153;52.680;6.172;2024-02-26T12:30:54;8.13;;;4.30;;
53263;SDS011;39153;52.680;6.172;2024-02-26T12:33:19;6.07;;;3.85;;
53263;SDS011;39153;52.680;6.172;2024-02-26T12:35:45;7.22;;;4.10;;
53263;SDS011;39153;52.680;6.172;2024-02-26T12:38:14;8.00;;;4.07;;
53263;SDS011;39153;52.680;6.172;2024-02-26T12:40:40;6.25;;;3.65;;
53263;SDS011;39153;52.680;6.172;2024-02-26T12:43:07;8.02;;;4.13;;
53263;SDS011;39153;52.680;6.172;2024-02-26T12:45:39;6.90;;;3.30;;
53263;SDS011;39153;52.680;6.172;2024-02-26T12:48:06;9.63;;;3.60;;
53263;SDS011;39153;52.680;6.172;2024-02-26T12:50:32;6.15;;;3.75;;
53263;SDS011;39153;52.680;6.172;2024-02-26T12:52:58;7.80;;;3.65;;
53263;SDS011;39153;52.680;6.172;2024-02-26T12:55:24;8.07;;;4.18;;
53263;SDS011;39153;52.680;6.172;2024-02-26T12:57:51;5.90;;;3.75;;
53263;SDS011;39153;52.680;6.172;2024-02-26T13:00:21;6.68;;;3.30;;
53263;SDS011;39153;52.680;6.172;2024-02-26T13:02:50;7.20;;;3.95;;
53263;SDS011;39153;52.680;6.172;2024-02-26T13:05:17;6.22;;;3.53;;
53263;SDS011;39153;52.680;6.172;2024-02-26T13:07:44;6.57;;;3.65;;
53263;SDS011;39153;52.680;6.172;2024-02-26T13:10:12;6.95;;;3.95;;
53263;SDS011;39153;52.680;6.172;2024-02-26T13:12:44;7.15;;;3.28;;
53263;SDS011;39153;52.680;6.172;2024-02-26T13:15:16;6.13;;;3.47;;
53263;SDS011;39153;52.680;6.172;2024-02-26T13:17:43;6.47;;;3.70;;
53263;SDS011;39153;52.680;6.172;2024-02-26T13:20:09;6.47;;;3.17;;
53263;SDS011;39153;52.680;6.172;2024-02-26T13:22:36;7.95;;;3.65;;
53263;SDS011;39153;52.680;6.172;2024-02-26T13:25:02;5.05;;;3.10;;
53263;SDS011;39153;52.680;6.172;2024-02-26T13:27:28;6.38;;;3.33;;
53263;SDS011;39153;52.680;6.172;2024-02-26T13:30:10;6.93;;;3.40;;
53263;SDS011;39153;52.680;6.172;2024-02-26T13:32:38;5.22;;;3.03;;
53263;SDS011;39153;52.680;6.172;2024-02-26T13:35:11;9.40;;;3.28;;
53263;SDS011;39153;52.680;6.172;2024-02-26T13:37:38;6.88;;;3.30;;
53263;SDS011;39153;52.680;6.172;2024-02-26T13:40:05;6.40;;;3.55;;
53263;SDS011;39153;52.680;6.172;2024-02-26T13:42:32;6.28;;;3.55;;
53263;SDS011;39153;52.680;6.172;2024-02-26T13:44:58;6.75;;;3.45;;
53263;SDS011;39153;52.680;6.172;2024-02-26T13:47:23;7.57;;;3.80;;
53263;SDS011;39153;52.680;6.172;2024-02-26T13:49:49;6.75;;;3.70;;
53263;SDS011;39153;52.680;6.172;2024-02-26T13:52:15;6.40;;;3.70;;
53263;SDS011;39153;52.680;6.172;2024-02-26T13:54:41;7.57;;;4.28;;
53263;SDS011;39153;52.680;6.172;2024-02-26T13:57:07;6.03;;;3.78;;
53263;SDS011;39153;52.680;6.172;2024-02-26T13:59:33;7.10;;;4.50;;
53263;SDS011;39153;52.680;6.172;2024-02-26T14:01:59;8.30;;;4.75;;
53263;SDS011;39153;52.680;6.172;2024-02-26T14:04:25;7.50;;;4.07;;
53263;SDS011;39153;52.680;6.172;2024-02-26T14:06:50;7.38;;;4.60;;
53263;SDS011;39153;52.680;6.172;2024-02-26T14:09:16;8.10;;;4.90;;
53263;SDS011;39153;52.680;6.172;2024-02-26T14:11:47;10.40;;;5.20;;
53263;SDS011;39153;52.680;6.172;2024-02-26T14:14:13;12.63;;;5.10;;
53263;SDS011;39153;52.680;6.172;2024-02-26T14:16:39;8.95;;;4.57;;
53263;SDS011;39153;52.680;6.172;2024-02-26T14:19:04;10.18;;;5.00;;
53263;SDS011;39153;52.680;6.172;2024-02-26T14:21:30;13.57;;;5.32;;
53263;SDS011;39153;52.680;6.172;2024-02-26T14:23:57;7.82;;;4.40;;
53263;SDS011;39153;52.680;6.172;2024-02-26T14:26:23;8.10;;;4.90;;
53263;SDS011;39153;52.680;6.172;2024-02-26T14:28:49;10.43;;;5.90;;
53263;SDS011;39153;52.680;6.172;2024-02-26T14:31:18;10.00;;;5.50;;
53263;SDS011;39153;52.680;6.172;2024-02-26T14:33:43;8.73;;;5.22;;
53263;SDS011;39153;52.680;6.172;2024-02-26T14:36:10;8.98;;;5.53;;